Time;durP1;ratioP1;P1;durP2;ratioP2;P2;SDS_P1;SDS_P2;PMS_P1;PMS_P2;Temp;Humidity;BMP_temperature;BMP_pressure;BME280_temperature;BME280_humidity;BME280_pressure;Samples;Min_cycle;Max_cycle;Signal;HPM_P1;HPM_P2
2021/08/23 00:01:41;;;;;;;155.35;18.02;;;38.70;27.90;;;;;;5072264;28;20561;-60
2021/08/23 00:04:07;;;;;;;19.50;9.43;;;38.70;39.70;;;;;;5078007;28;20081;-59
2021/08/23 00:06:34;;;;;;;20.40;9.95;;;38.40;33.70;;;;;;5075761;28;20074;-59
2021/08/23 00:09:00;;;;;;;16.38;10.00;;;38.10;30.80;;;;;;5074372;28;20196;-59
2021/08/23 00:11:27;;;;;;;20.63;10.20;;;37.90;30.90;;;;;;5075118;28;20142;-59
2021/08/23 00:13:54;;;;;;;18.98;10.40;;;37.90;31.30;;;;;;5069716;28;20570;-59
2021/08/23 00:16:20;;;;;;;28.52;9.80;;;37.90;30.20;;;;;;5071782;28;20082;-58
2021/08/23 00:18:47;;;;;;;31.30;10.50;;;37.80;29.80;;;;;;5075427;28;20076;-57
2021/08/23 00:21:22;;;;;;;23.25;10.25;;;37.70;29.80;;;;;;5076118;28;20065;-59
2021/08/23 00:23:52;;;;;;;19.02;9.43;;;37.60;30.60;;;;;;5073998;28;20092;-58
2021/08/23 00:26:19;;;;;;;20.27;10.45;;;37.40;30.00;;;;;;5074595;28;20152;-59
2021/08/23 00:28:45;;;;;;;19.13;10.05;;;37.50;30.00;;;;;;5078773;28;20455;-59
2021/08/23 00:31:12;;;;;;;20.02;10.50;;;37.50;32.70;;;;;;5073291;28;20160;-60
2021/08/23 00:33:38;;;;;;;19.77;10.05;;;37.50;30.50;;;;;;5076017;28;20542;-59
2021/08/23 00:36:05;;;;;;;19.77;9.68;;;37.60;29.80;;;;;;5076127;28;20212;-61
2021/08/23 00:38:31;;;;;;;24.55;10.30;;;37.60;30.40;;;;;;5077750;28;20160;-59
2021/08/23 00:40:58;;;;;;;20.92;10.27;;;37.60;29.40;;;;;;5074172;28;20064;-58
2021/08/23 00:43:25;;;;;;;24.05;10.15;;;37.50;30.20;;;;;;5073991;28;20138;-59
2021/08/23 00:45:51;;;;;;;16.90;9.60;;;37.50;31.10;;;;;;5075316;28;20077;-60
2021/08/23 00:48:18;;;;;;;19.05;9.90;;;37.50;31.70;;;;;;5070294;28;20069;-59
2021/08/23 00:50:44;;;;;;;16.00;9.77;;;37.40;32.10;;;;;;5072569;28;20076;-57
2021/08/23 00:53:11;;;;;;;21.13;9.65;;;37.40;31.00;;;;;;5073565;28;20088;-56
2021/08/23 00:55:38;;;;;;;24.13;10.27;;;37.30;30.40;;;;;;5072211;28;20113;-59
2021/08/23 00:58:04;;;;;;;22.52;10.27;;;37.30;32.30;;;;;;5073883;28;20327;-58
2021/08/23 01:00:34;;;;;;;28.25;10.35;;;37.20;30.00;;;;;;5075833;28;20477;-59
2021/08/23 01:03:07;;;;;;;24.45;9.95;;;37.10;31.90;;;;;;5082966;28;20069;-61
2021/08/23 01:05:34;;;;;;;19.25;9.35;;;37.00;30.30;;;;;;5077825;28;20073;-59
2021/08/23 01:08:07;;;;;;;22.73;10.55;;;37.00;34.50;;;;;;5078122;28;20069;-58
2021/08/23 01:10:42;;;;;;;27.65;10.68;;;36.90;33.40;;;;;;5077539;28;20111;-58
2021/08/23 01:13:09;;;;;;;24.65;9.68;;;36.80;33.70;;;;;;5075319;28;20457;-58
2021/08/23 01:15:38;;;;;;;16.83;9.50;;;36.70;32.50;;;;;;5074011;28;20171;-59
2021/08/23 01:18:05;;;;;;;19.67;9.65;;;36.70;32.50;;;;;;5087361;28;20539;-59
2021/08/23 01:20:39;;;;;;;19.50;9.32;;;36.60;31.80;;;;;;5078846;28;20113;-58
2021/08/23 01:23:08;;;;;;;19.05;9.35;;;36.60;30.80;;;;;;5074774;28;20089;-57
2021/08/23 01:25:37;;;;;;;17.85;9.18;;;36.60;33.60;;;;;;5075632;28;20534;-60
2021/08/23 01:28:33;;;;;;;17.75;8.85;;;36.50;31.90;;;;;;5075266;28;20082;-59
2021/08/23 01:31:15;;;;;;;19.52;9.50;;;36.50;31.70;;;;;;5073584;28;20175;-55
2021/08/23 01:33:43;;;;;;;20.88;8.90;;;36.40;32.70;;;;;;5073099;28;20568;-58
2021/08/23 01:36:10;;;;;;;18.67;8.98;;;36.40;32.50;;;;;;5073526;28;20101;-58
2021/08/23 01:38:37;;;;;;;19.80;8.38;;;36.20;32.80;;;;;;5072773;28;20074;-59
2021/08/23 01:41:06;;;;;;;23.17;10.05;;;36.20;32.50;;;;;;5074953;28;20522;-60
2021/08/23 01:43:34;;;;;;;22.85;9.13;;;36.10;31.70;;;;;;5070216;28;20097;-60
2021/08/23 01:46:00;;;;;;;23.77;10.38;;;36.00;32.30;;;;;;5072633;28;20143;-60
2021/08/23 01:48:27;;;;;;;21.88;9.65;;;35.90;32.00;;;;;;5078245;28;20073;-60
2021/08/23 01:50:55;;;;;;;25.85;9.13;;;35.90;32.20;;;;;;5076266;28;20101;-57
2021/08/23 01:53:22;;;;;;;21.65;9.27;;;35.90;33.00;;;;;;5075363;28;20093;-59
2021/08/23 01:55:48;;;;;;;25.05;9.80;;;35.80;32.50;;;;;;5076914;28;20148;-59
2021/08/23 01:58:19;;;;;;;20.98;8.75;;;35.70;33.00;;;;;;5073336;28;20125;-58
2021/08/23 02:00:46;;;;;;;26.60;8.52;;;35.60;32.80;;;;;;5077680;28;20107;-60
2021/08/23 02:03:12;;;;;;;24.95;8.65;;;35.60;32.70;;;;;;5077179;28;20084;-60
2021/08/23 02:05:39;;;;;;;36.33;9.18;;;35.40;32.50;;;;;;5072407;28;20072;-59
2021/08/23 02:08:06;;;;;;;24.83;9.32;;;35.40;32.80;;;;;;5072848;28;20069;-59
2021/08/23 02:10:33;;;;;;;18.73;8.30;;;35.30;31.50;;;;;;5073299;28;20084;-58
2021/08/23 02:12:59;;;;;;;18.75;8.90;;;35.20;31.00;;;;;;5072896;28;20124;-58
2021/08/23 02:15:26;;;;;;;23.58;9.63;;;35.20;30.60;;;;;;5072015;28;20083;-59
2021/08/23 02:17:53;;;;;;;23.70;9.48;;;35.20;30.80;;;;;;5073216;28;20095;-58
2021/08/23 02:20:19;;;;;;;21.13;8.88;;;35.10;30.10;;;;;;5073332;28;20117;-59
2021/08/23 02:22:47;;;;;;;22.88;8.93;;;35.00;29.40;;;;;;5072122;28;20126;-58
2021/08/23 02:25:19;;;;;;;20.15;8.80;;;34.90;29.80;;;;;;5078357;28;20534;-61
2021/08/23 02:27:45;;;;;;;24.10;9.00;;;34.80;29.70;;;;;;5073164;28;20138;-58
2021/08/23 02:30:12;;;;;;;23.52;9.20;;;34.80;29.70;;;;;;5069281;28;20164;-59
2021/08/23 02:32:39;;;;;;;23.40;9.23;;;34.70;30.00;;;;;;5071388;28;20151;-56
2021/08/23 02:35:06;;;;;;;18.13;9.05;;;34.60;29.70;;;;;;5071940;28;20131;-58
2021/08/23 02:37:33;;;;;;;33.30;10.80;;;34.60;29.60;;;;;;5076589;28;20081;-57
2021/08/23 02:39:59;;;;;;;32.45;10.85;;;34.60;29.50;;;;;;5068977;28;20127;-60
2021/08/23 02:42:26;;;;;;;30.65;11.48;;;34.50;29.70;;;;;;5073560;28;20073;-60
2021/08/23 02:44:52;;;;;;;27.63;11.45;;;34.50;29.70;;;;;;5071273;28;20160;-60
2021/08/23 02:47:19;;;;;;;29.55;11.73;;;34.40;30.00;;;;;;5077843;28;20461;-60
2021/08/23 02:49:45;;;;;;;29.70;11.70;;;34.30;30.20;;;;;;5074658;28;20073;-59
2021/08/23 02:52:12;;;;;;;28.45;12.25;;;34.20;29.80;;;;;;5075299;28;20493;-58
2021/08/23 02:54:39;;;;;;;41.53;12.13;;;34.10;30.00;;;;;;5082531;28;20076;-59
2021/08/23 02:57:05;;;;;;;36.60;11.43;;;34.10;30.50;;;;;;5078001;28;20214;-59
2021/08/23 02:59:32;;;;;;;41.45;11.05;;;34.00;29.70;;;;;;5083076;28;20321;-59
2021/08/23 03:01:58;;;;;;;31.55;12.13;;;34.00;29.60;;;;;;5078728;28;20077;-58
2021/08/23 03:04:25;;;;;;;33.15;11.43;;;33.90;29.60;;;;;;5078789;28;20073;-59
2021/08/23 03:06:52;;;;;;;37.15;12.27;;;33.90;29.40;;;;;;5081045;28;20087;-59
2021/08/23 03:09:18;;;;;;;38.13;13.25;;;33.80;30.10;;;;;;5084564;28;20072;-60
2021/08/23 03:11:44;;;;;;;39.55;13.40;;;33.80;30.40;;;;;;5080718;28;20525;-60
2021/08/23 03:14:11;;;;;;;37.83;13.15;;;33.70;30.00;;;;;;5078546;28;20085;-59
2021/08/23 03:16:38;;;;;;;35.33;12.40;;;33.70;30.00;;;;;;5079053;28;20437;-59
2021/08/23 03:19:04;;;;;;;28.05;12.35;;;33.60;30.00;;;;;;5079298;28;20582;-59
2021/08/23 03:21:31;;;;;;;44.85;12.00;;;33.60;30.80;;;;;;5081687;28;20130;-59
2021/08/23 03:23:57;;;;;;;38.97;11.43;;;33.50;30.60;;;;;;5076024;28;20096;-60
2021/08/23 03:26:24;;;;;;;31.80;11.43;;;33.40;30.00;;;;;;5079316;28;20108;-60
2021/08/23 03:28:52;;;;;;;28.20;11.45;;;33.40;30.20;;;;;;5075652;28;20175;-59
2021/08/23 03:31:19;;;;;;;37.05;13.00;;;33.30;30.00;;;;;;5075088;28;20097;-60
2021/08/23 03:33:45;;;;;;;37.92;12.88;;;33.30;30.00;;;;;;5081733;28;20100;-59
2021/08/23 03:36:12;;;;;;;49.05;13.02;;;33.30;30.10;;;;;;5077587;28;20076;-58
2021/08/23 03:38:40;;;;;;;37.42;12.93;;;33.20;31.20;;;;;;5080616;28;20085;-58
2021/08/23 03:41:07;;;;;;;39.50;11.98;;;33.20;32.10;;;;;;5078260;28;20080;-60
2021/08/23 03:43:34;;;;;;;43.05;13.55;;;33.20;32.60;;;;;;5080865;28;20084;-60
2021/08/23 03:46:00;;;;;;;36.22;12.68;;;33.10;31.80;;;;;;5077392;28;20495;-62
2021/08/23 03:48:27;;;;;;;32.72;11.90;;;33.00;31.60;;;;;;5075574;28;20073;-60
2021/08/23 03:50:53;;;;;;;38.45;12.07;;;33.00;31.70;;;;;;5078369;28;20514;-62
2021/08/23 03:53:20;;;;;;;40.70;11.52;;;32.90;32.50;;;;;;5076140;28;20101;-61
2021/08/23 03:55:46;;;;;;;35.05;11.18;;;32.90;32.90;;;;;;5076252;28;20077;-61
2021/08/23 03:58:13;;;;;;;42.15;12.95;;;32.90;31.80;;;;;;5074842;28;20081;-59
2021/08/23 04:00:40;;;;;;;30.10;12.73;;;32.80;32.60;;;;;;5073963;28;20123;-61
2021/08/23 04:03:06;;;;;;;44.47;15.38;;;32.80;32.40;;;;;;5073855;28;20104;-60
2021/08/23 04:05:33;;;;;;;44.30;16.33;;;32.80;32.10;;;;;;5075332;28;20538;-59
2021/08/23 04:07:59;;;;;;;42.95;16.13;;;32.80;32.40;;;;;;5075884;28;20093;-60
2021/08/23 04:10:26;;;;;;;51.88;16.10;;;32.80;32.50;;;;;;5080502;28;20077;-60
2021/08/23 04:12:53;;;;;;;38.33;14.48;;;32.80;32.40;;;;;;5075694;28;20187;-61
2021/08/23 04:15:19;;;;;;;45.45;14.25;;;32.70;32.90;;;;;;5072960;28;20069;-60
2021/08/23 04:17:46;;;;;;;40.67;13.52;;;32.70;32.50;;;;;;5082435;28;20121;-61
2021/08/23 04:20:13;;;;;;;47.55;15.27;;;32.70;32.10;;;;;;5071174;28;20121;-60
2021/08/23 04:22:39;;;;;;;36.55;14.05;;;32.60;34.40;;;;;;5075422;28;20077;-62
2021/08/23 04:25:07;;;;;;;40.28;14.75;;;32.60;33.80;;;;;;5078673;28;20141;-61
2021/08/23 04:27:33;;;;;;;41.75;13.50;;;32.60;34.60;;;;;;5073303;28;20096;-61
2021/08/23 04:30:00;;;;;;;42.50;12.15;;;32.50;35.10;;;;;;5074525;28;20073;-60
2021/08/23 04:32:26;;;;;;;36.35;14.30;;;32.40;34.70;;;;;;5068774;28;20097;-61
2021/08/23 04:34:53;;;;;;;45.38;14.88;;;32.40;34.00;;;;;;5075928;28;20076;-61
2021/08/23 04:37:19;;;;;;;45.13;15.20;;;32.30;34.70;;;;;;5074947;28;20415;-63
2021/08/23 04:39:47;;;;;;;43.45;13.65;;;32.20;34.20;;;;;;5073428;28;20113;-60
2021/08/23 04:42:13;;;;;;;38.22;13.02;;;32.20;34.40;;;;;;5072509;28;20160;-59
2021/08/23 04:44:43;;;;;;;48.45;14.77;;;32.20;36.00;;;;;;5073194;28;20080;-62
2021/08/23 04:47:10;;;;;;;38.05;13.88;;;32.10;35.50;;;;;;5069319;28;20104;-60
2021/08/23 04:49:37;;;;;;;52.42;15.68;;;32.10;35.60;;;;;;5079795;28;20085;-60
2021/08/23 04:52:05;;;;;;;57.65;15.70;;;32.10;34.10;;;;;;5075643;28;20104;-60
2021/08/23 04:54:31;;;;;;;44.78;15.07;;;32.10;33.60;;;;;;5075890;28;20118;-62
2021/08/23 04:56:58;;;;;;;51.33;16.42;;;32.10;33.70;;;;;;5072193;28;20104;-59
2021/08/23 04:59:24;;;;;;;45.00;15.20;;;32.10;33.00;;;;;;5077415;28;20081;-61
2021/08/23 05:01:51;;;;;;;46.80;15.43;;;32.10;32.60;;;;;;5072720;28;20522;-60
2021/08/23 05:04:17;;;;;;;48.97;14.70;;;32.10;32.30;;;;;;5072355;28;20423;-61
2021/08/23 05:06:44;;;;;;;37.78;14.65;;;32.10;33.00;;;;;;5074858;28;20072;-60
2021/08/23 05:09:10;;;;;;;41.25;14.70;;;32.10;32.50;;;;;;5079465;28;20425;-61
2021/08/23 05:11:37;;;;;;;43.95;14.48;;;32.10;33.10;;;;;;5081388;28;20160;-60
2021/08/23 05:14:04;;;;;;;47.15;15.02;;;32.20;32.00;;;;;;5073002;28;20088;-58
2021/08/23 05:16:34;;;;;;;44.75;15.02;;;32.20;32.10;;;;;;5078651;28;20111;-62
2021/08/23 05:19:01;;;;;;;45.78;15.02;;;32.20;32.20;;;;;;5075468;28;20109;-59
2021/08/23 05:21:28;;;;;;;43.28;16.05;;;32.20;32.60;;;;;;5079354;28;20069;-61
2021/08/23 05:23:54;;;;;;;41.03;16.95;;;32.20;32.40;;;;;;5069415;28;20080;-59
2021/08/23 05:26:21;;;;;;;42.97;16.58;;;32.20;33.30;;;;;;5077679;28;20077;-60
2021/08/23 05:28:47;;;;;;;49.88;18.23;;;32.10;33.30;;;;;;5073122;28;20068;-60
2021/08/23 05:31:14;;;;;;;51.42;19.85;;;32.10;34.10;;;;;;5077961;28;20080;-59
2021/08/23 05:33:40;;;;;;;55.63;21.83;;;32.10;34.30;;;;;;5075077;28;20108;-62
2021/08/23 05:36:07;;;;;;;57.22;20.67;;;32.10;34.50;;;;;;5076896;28;20075;-62
2021/08/23 05:38:34;;;;;;;60.50;20.08;;;32.10;34.50;;;;;;5070371;28;20077;-60
2021/08/23 05:41:00;;;;;;;55.05;20.48;;;32.10;34.70;;;;;;5072333;28;20072;-62
2021/08/23 05:43:27;;;;;;;44.92;19.60;;;32.00;34.80;;;;;;5068298;28;20094;-66
2021/08/23 05:45:55;;;;;;;48.42;18.00;;;32.00;35.40;;;;;;5075855;28;20084;-60
2021/08/23 05:48:22;;;;;;;54.13;18.08;;;32.00;35.60;;;;;;5069409;28;20084;-59
2021/08/23 05:50:48;;;;;;;47.20;18.13;;;31.90;35.90;;;;;;5074740;28;20061;-60
2021/08/23 05:53:18;;;;;;;49.97;18.10;;;31.90;36.40;;;;;;5078155;28;20089;-61
2021/08/23 05:55:44;;;;;;;46.70;18.70;;;31.80;36.90;;;;;;5075060;28;20073;-60
2021/08/23 05:58:11;;;;;;;43.25;18.35;;;31.80;37.70;;;;;;5072518;28;20433;-59
2021/08/23 06:00:37;;;;;;;47.72;18.42;;;31.60;37.80;;;;;;5075899;28;20413;-60
2021/08/23 06:03:04;;;;;;;46.53;19.20;;;31.70;37.50;;;;;;5077616;28;20077;-58
2021/08/23 06:05:31;;;;;;;61.00;21.00;;;31.60;37.80;;;;;;5076200;28;20160;-60
2021/08/23 06:07:58;;;;;;;45.08;19.73;;;31.60;38.00;;;;;;5073509;28;20091;-63
2021/08/23 06:10:25;;;;;;;64.15;22.35;;;31.60;38.20;;;;;;5072162;28;20107;-59
2021/08/23 06:12:52;;;;;;;53.58;22.98;;;31.50;38.40;;;;;;5069340;28;20093;-59
2021/08/23 06:15:18;;;;;;;46.30;21.42;;;31.50;38.70;;;;;;5070569;28;20073;-56
2021/08/23 06:17:45;;;;;;;44.22;19.75;;;31.50;38.90;;;;;;5070221;28;20441;-57
2021/08/23 06:20:11;;;;;;;47.00;19.58;;;31.40;39.40;;;;;;5070109;28;20178;-59
2021/08/23 06:22:38;;;;;;;51.78;19.60;;;31.50;39.70;;;;;;5071990;28;20117;-58
2021/08/23 06:25:06;;;;;;;43.53;19.92;;;31.40;39.70;;;;;;5074139;28;20126;-60
2021/08/23 06:27:33;;;;;;;46.17;19.45;;;31.40;39.90;;;;;;5074793;28;20092;-60
2021/08/23 06:30:01;;;;;;;45.00;18.33;;;31.40;40.10;;;;;;5077968;28;20084;-60
2021/08/23 06:32:28;;;;;;;43.25;18.02;;;31.30;40.50;;;;;;5073300;28;20111;-60
2021/08/23 06:34:55;;;;;;;38.13;17.35;;;31.30;41.00;;;;;;5078182;28;20084;-59
2021/08/23 06:37:22;;;;;;;42.85;17.55;;;31.20;41.50;;;;;;5075793;28;20602;-58
2021/08/23 06:39:48;;;;;;;45.28;19.65;;;31.20;42.00;;;;;;5077337;28;20119;-59
2021/08/23 06:42:15;;;;;;;36.08;20.13;;;31.10;42.60;;;;;;5077499;28;20069;-58
2021/08/23 06:44:41;;;;;;;41.22;20.67;;;31.00;43.10;;;;;;5075148;28;20092;-60
2021/08/23 06:47:08;;;;;;;43.15;21.60;;;31.00;43.40;;;;;;5076314;28;20126;-59
2021/08/23 06:49:34;;;;;;;69.07;23.70;;;31.00;43.80;;;;;;5075049;28;20073;-59
2021/08/23 06:52:01;;;;;;;44.30;22.38;;;30.90;44.80;;;;;;5076157;28;20129;-60
2021/08/23 06:54:28;;;;;;;40.60;21.02;;;30.80;44.90;;;;;;5074442;28;20076;-60
2021/08/23 06:56:54;;;;;;;48.15;21.10;;;30.80;45.60;;;;;;5071317;28;20148;-58
2021/08/23 06:59:21;;;;;;;58.50;24.17;;;30.70;46.00;;;;;;5074941;28;20069;-58
2021/08/23 07:01:47;;;;;;;54.00;25.85;;;30.70;46.40;;;;;;5077228;28;20108;-59
2021/08/23 07:04:14;;;;;;;52.83;24.35;;;30.60;46.70;;;;;;5079574;28;20161;-59
2021/08/23 07:06:40;;;;;;;57.17;25.23;;;30.60;46.90;;;;;;5075679;28;20085;-59
2021/08/23 07:09:07;;;;;;;50.17;24.92;;;30.60;46.90;;;;;;5072166;28;20076;-60
2021/08/23 07:11:33;;;;;;;49.08;25.02;;;30.40;65.60;;;;;;5076689;28;20135;-60
2021/08/23 07:14:00;;;;;;;65.55;24.70;;;30.50;47.20;;;;;;5073590;28;20101;-60
2021/08/23 07:16:26;;;;;;;52.45;25.50;;;30.50;62.30;;;;;;5075110;28;20120;-60
2021/08/23 07:18:53;;;;;;;42.70;22.23;;;30.40;47.60;;;;;;5074948;28;20139;-58
2021/08/23 07:21:19;;;;;;;44.97;23.35;;;30.40;48.30;;;;;;5077891;28;20069;-58
2021/08/23 07:23:46;;;;;;;44.15;23.85;;;30.30;47.90;;;;;;5072821;28;20121;-59
2021/08/23 07:26:12;;;;;;;48.05;24.70;;;30.30;49.10;;;;;;5071709;28;20108;-59
2021/08/23 07:28:39;;;;;;;56.55;23.67;;;30.20;48.60;;;;;;5074844;28;20115;-58
2021/08/23 07:31:06;;;;;;;41.25;20.38;;;30.20;49.10;;;;;;5075091;28;20069;-59
2021/08/23 07:33:33;;;;;;;38.15;19.45;;;30.20;49.20;;;;;;5075311;28;20136;-60
2021/08/23 07:35:59;;;;;;;33.72;17.17;;;30.00;49.80;;;;;;5077632;28;20100;-59
2021/08/23 07:38:26;;;;;;;37.13;17.08;;;30.00;50.30;;;;;;5073867;28;20085;-60
2021/08/23 07:40:53;;;;;;;29.40;16.30;;;29.90;50.70;;;;;;5073792;28;20597;-59
2021/08/23 07:43:19;;;;;;;33.38;15.75;;;29.90;51.40;;;;;;5077279;28;20085;-58
2021/08/23 07:45:46;;;;;;;32.72;18.05;;;29.80;51.10;;;;;;5072572;28;20065;-59
2021/08/23 07:48:12;;;;;;;51.75;22.35;;;29.80;51.20;;;;;;5073985;28;20077;-59
2021/08/23 07:50:39;;;;;;;46.10;24.65;;;29.70;50.80;;;;;;5076683;28;20092;-58
2021/08/23 07:53:05;;;;;;;52.95;23.70;;;29.70;50.80;;;;;;5076044;28;20122;-58
2021/08/23 07:55:32;;;;;;;49.33;23.60;;;29.70;51.10;;;;;;5073136;28;20077;-58
2021/08/23 07:57:59;;;;;;;51.42;24.00;;;29.70;51.20;;;;;;5076673;28;20076;-60
2021/08/23 08:00:25;;;;;;;52.33;23.73;;;29.60;51.50;;;;;;5077315;28;20537;-60
2021/08/23 08:02:52;;;;;;;49.95;24.33;;;29.60;51.80;;;;;;5075554;28;20167;-59
2021/08/23 08:05:25;;;;;;;51.75;24.67;;;29.50;52.20;;;;;;5075006;28;20077;-56
2021/08/23 08:07:52;;;;;;;58.47;25.50;;;29.60;52.80;;;;;;5072956;28;20164;-58
2021/08/23 08:10:19;;;;;;;40.35;22.58;;;29.50;53.10;;;;;;5076123;28;20073;-58
2021/08/23 08:12:45;;;;;;;31.23;14.65;;;29.50;55.50;;;;;;5074349;28;20108;-59
2021/08/23 08:15:12;;;;;;;30.60;14.70;;;29.30;58.60;;;;;;5076246;28;20069;-57
2021/08/23 08:17:39;;;;;;;35.45;17.15;;;29.30;60.00;;;;;;5073067;28;20441;-58
2021/08/23 08:20:08;;;;;;;31.50;16.40;;;29.30;60.90;;;;;;5074780;28;20200;-58
2021/08/23 08:22:35;;;;;;;30.58;15.50;;;29.30;63.10;;;;;;5073600;28;20081;-56
2021/08/23 08:25:03;;;;;;;33.28;17.25;;;29.10;66.90;;;;;;5076475;28;20095;-57
2021/08/23 08:27:29;;;;;;;28.45;15.60;;;29.00;69.20;;;;;;5073996;28;20113;-57
2021/08/23 08:29:56;;;;;;;25.27;16.52;;;28.90;70.80;;;;;;5075893;28;20065;-58
2021/08/23 08:32:25;;;;;;;34.40;17.25;;;28.80;73.10;;;;;;5077919;28;20091;-59
2021/08/23 08:34:52;;;;;;;31.63;17.23;;;28.60;75.40;;;;;;5072173;28;20514;-59
2021/08/23 08:37:19;;;;;;;40.08;18.08;;;28.50;76.80;;;;;;5074237;28;20080;-59
2021/08/23 08:39:46;;;;;;;36.25;18.70;;;28.50;77.90;;;;;;5072797;28;20127;-58
2021/08/23 08:42:14;;;;;;;32.22;16.02;;;28.50;79.00;;;;;;5075344;28;20077;-55
2021/08/23 08:44:41;;;;;;;33.50;16.73;;;28.40;80.00;;;;;;5073975;28;20109;-60
2021/08/23 08:47:08;;;;;;;31.15;16.58;;;28.40;81.10;;;;;;5075641;28;20510;-58
2021/08/23 08:49:37;;;;;;;29.75;15.90;;;28.40;81.70;;;;;;5072037;28;20081;-58
2021/08/23 08:52:05;;;;;;;27.58;16.05;;;28.30;82.30;;;;;;5074388;28;20125;-58
2021/08/23 08:54:32;;;;;;;31.05;16.13;;;28.30;82.60;;;;;;5073967;28;20083;-58
2021/08/23 08:57:01;;;;;;;28.40;15.60;;;28.30;83.20;;;;;;5073604;28;20441;-59
2021/08/23 08:59:28;;;;;;;30.08;15.85;;;28.30;84.50;;;;;;5075412;28;20076;-59
2021/08/23 09:01:55;;;;;;;28.38;15.70;;;28.20;85.40;;;;;;5076963;28;20081;-58
2021/08/23 09:04:35;;;;;;;29.10;15.40;;;28.30;85.70;;;;;;5072048;28;20065;-59
2021/08/23 09:07:04;;;;;;;31.92;15.48;;;28.20;85.90;;;;;;5072278;28;20148;-59
2021/08/23 09:09:31;;;;;;;30.10;15.43;;;28.20;85.90;;;;;;5076826;28;20417;-58
2021/08/23 09:12:07;;;;;;;32.15;15.57;;;28.10;86.70;;;;;;5074924;28;20069;-59
2021/08/23 09:14:37;;;;;;;33.53;15.55;;;28.20;87.20;;;;;;5073944;28;20084;-58
2021/08/23 09:17:08;;;;;;;30.52;16.10;;;28.10;88.40;;;;;;5072908;28;20084;-59
2021/08/23 09:19:36;;;;;;;27.65;15.68;;;27.90;90.20;;;;;;5075114;28;20109;-60
2021/08/23 09:22:07;;;;;;;34.38;17.10;;;27.90;91.00;;;;;;5076409;28;20091;-61
2021/08/23 09:24:37;;;;;;;30.45;16.45;;;27.80;91.30;;;;;;5070910;28;20072;-58
2021/08/23 09:27:07;;;;;;;27.67;15.57;;;27.80;91.70;;;;;;5070717;28;20487;-60
2021/08/23 09:29:54;;;;;;;29.48;15.20;;;27.70;92.00;;;;;;5073749;28;20634;-58
2021/08/23 09:32:26;;;;;;;30.30;15.68;;;27.60;92.50;;;;;;5069497;28;20116;-60
2021/08/23 09:34:54;;;;;;;26.48;14.57;;;27.80;93.20;;;;;;5071101;28;20084;-59
2021/08/23 09:37:23;;;;;;;28.38;14.85;;;27.80;93.10;;;;;;5073476;28;20069;-58
2021/08/23 09:39:50;;;;;;;31.52;15.13;;;27.60;93.40;;;;;;5077013;28;20162;-55
2021/08/23 09:42:22;;;;;;;26.30;14.63;;;27.70;93.50;;;;;;5072836;28;20065;-58
2021/08/23 09:44:50;;;;;;;22.08;14.45;;;27.70;93.80;;;;;;5070977;28;20168;-59
2021/08/23 09:47:17;;;;;;;28.05;14.40;;;27.60;94.00;;;;;;5074579;28;20216;-59
2021/08/23 09:49:46;;;;;;;26.10;15.05;;;27.60;94.50;;;;;;5072443;28;20088;-59
2021/08/23 09:52:27;;;;;;;23.55;15.40;;;27.50;94.80;;;;;;5072939;28;20093;-60
2021/08/23 09:55:02;;;;;;;26.17;14.68;;;27.50;95.30;;;;;;5070909;28;20080;-60
2021/08/23 09:57:30;;;;;;;25.85;13.68;;;27.30;96.10;;;;;;5075999;28;20210;-60
2021/08/23 09:59:57;;;;;;;27.88;14.32;;;27.30;97.00;;;;;;5073818;28;20553;-58
2021/08/23 10:02:26;;;;;;;25.20;13.80;;;27.20;97.50;;;;;;5074436;28;20073;-57
2021/08/23 10:04:55;;;;;;;25.17;13.88;;;27.20;97.80;;;;;;5078727;28;20077;-58
2021/08/23 10:07:26;;;;;;;25.27;13.85;;;27.30;98.10;;;;;;5074325;28;21497;-57
2021/08/23 10:09:54;;;;;;;28.20;14.93;;;27.30;97.90;;;;;;5086460;28;20108;-60
2021/08/23 10:12:22;;;;;;;33.33;15.20;;;27.20;97.70;;;;;;5077176;28;20108;-60
2021/08/23 10:14:48;;;;;;;31.33;14.63;;;27.20;98.30;;;;;;5076589;28;20069;-59
2021/08/23 10:17:15;;;;;;;34.60;14.65;;;27.20;99.00;;;;;;5072504;28;20084;-57
2021/08/23 10:19:43;;;;;;;27.30;14.07;;;27.20;98.80;;;;;;5072415;28;20113;-56
2021/08/23 10:22:14;;;;;;;29.08;15.98;;;27.20;98.90;;;;;;5076426;28;20148;-57
2021/08/23 10:24:41;;;;;;;27.70;15.57;;;27.10;98.60;;;;;;5077693;28;20222;-58
2021/08/23 10:27:08;;;;;;;27.95;16.17;;;27.10;98.60;;;;;;5074665;28;20113;-60
2021/08/23 10:29:40;;;;;;;33.15;17.40;;;27.00;98.00;;;;;;5073814;28;20200;-57
2021/08/23 10:32:11;;;;;;;36.10;16.85;;;26.90;98.20;;;;;;5072862;28;20089;-58
2021/08/23 10:34:38;;;;;;;34.92;18.23;;;26.80;98.70;;;;;;5075498;28;20092;-58
2021/08/23 10:37:23;;;;;;;30.63;17.58;;;26.70;99.00;;;;;;5077073;28;20568;-58
2021/08/23 10:40:03;;;;;;;36.88;19.23;;;26.60;99.30;;;;;;5076680;28;20069;-57
2021/08/23 10:42:42;;;;;;;36.38;20.77;;;26.40;99.70;;;;;;5070800;28;20182;-59
2021/08/23 10:45:10;;;;;;;45.00;23.13;;;26.20;99.50;;;;;;5078139;28;20168;-59
2021/08/23 10:47:37;;;;;;;38.22;20.15;;;26.20;99.60;;;;;;5071892;28;20548;-59
2021/08/23 10:50:07;;;;;;;40.38;19.73;;;26.20;99.50;;;;;;5076959;28;20101;-56
2021/08/23 10:52:38;;;;;;;32.00;18.27;;;26.10;99.60;;;;;;5074166;28;20097;-59
2021/08/23 10:55:26;;;;;;;30.50;19.23;;;26.20;99.90;;;;;;5075414;28;20104;-58
2021/08/23 10:58:06;;;;;;;32.58;16.98;;;26.10;99.90;;;;;;5077833;28;20080;-59
2021/08/23 11:00:40;;;;;;;30.33;17.45;;;26.00;99.90;;;;;;5075003;28;20138;-60
2021/08/23 11:03:09;;;;;;;33.95;17.50;;;26.10;99.90;;;;;;5071212;28;20065;-59
2021/08/23 11:05:37;;;;;;;25.92;16.25;;;26.00;99.60;;;;;;5073700;28;20164;-59
2021/08/23 11:08:10;;;;;;;27.90;16.50;;;25.90;99.00;;;;;;5074967;28;20088;-59
2021/08/23 11:10:39;;;;;;;26.85;16.17;;;25.90;98.20;;;;;;5073345;28;20077;-60
2021/08/23 11:13:17;;;;;;;25.30;17.08;;;25.80;97.80;;;;;;5071604;28;20176;-58
2021/08/23 11:15:45;;;;;;;32.13;18.30;;;25.70;97.40;;;;;;5073053;28;20107;-60
2021/08/23 11:18:14;;;;;;;32.08;19.35;;;25.60;96.20;;;;;;5073232;28;20432;-60
2021/08/23 11:20:52;;;;;;;33.97;18.05;;;25.50;95.50;;;;;;5076660;28;20113;-59
2021/08/23 11:23:28;;;;;;;32.55;18.02;;;25.60;95.20;;;;;;5073870;28;20080;-60
2021/08/23 11:26:02;;;;;;;35.85;17.15;;;25.50;92.90;;;;;;5076747;28;20077;-59
2021/08/23 11:28:32;;;;;;;37.30;17.98;;;25.40;92.30;;;;;;5075511;28;20160;-60
2021/08/23 11:31:05;;;;;;;36.88;18.25;;;25.50;92.40;;;;;;5073256;28;20084;-59
2021/08/23 11:33:40;;;;;;;36.10;19.38;;;25.60;91.50;;;;;;5073679;28;20453;-59
2021/08/23 11:36:22;;;;;;;34.95;20.25;;;25.60;90.60;;;;;;5074076;28;20077;-59
2021/08/23 11:38:49;;;;;;;38.75;19.98;;;25.40;90.80;;;;;;5073826;28;20081;-60
2021/08/23 11:41:15;;;;;;;38.33;18.48;;;25.50;90.60;;;;;;5074156;28;20065;-59
2021/08/23 11:43:44;;;;;;;35.70;18.85;;;25.50;90.20;;;;;;5073906;28;20530;-59
2021/08/23 11:46:13;;;;;;;33.60;19.00;;;25.40;90.10;;;;;;5075880;28;20101;-59
2021/08/23 11:48:43;;;;;;;42.80;18.92;;;25.40;90.20;;;;;;5072271;28;20154;-59
2021/08/23 11:51:10;;;;;;;41.08;18.70;;;25.40;90.30;;;;;;5069867;28;20507;-55
2021/08/23 11:53:37;;;;;;;43.22;20.45;;;25.40;90.40;;;;;;5071327;28;20108;-58
2021/08/23 11:56:08;;;;;;;43.58;19.40;;;25.30;90.60;;;;;;5075256;28;20072;-60
2021/08/23 11:58:39;;;;;;;38.17;19.45;;;25.30;90.70;;;;;;5074409;28;20100;-60
2021/08/23 12:01:08;;;;;;;45.05;20.40;;;25.20;91.30;;;;;;5073803;28;20491;-60
2021/08/23 12:03:37;;;;;;;38.17;19.00;;;25.10;91.60;;;;;;5072462;28;20095;-60
2021/08/23 12:06:05;;;;;;;37.38;17.15;;;25.10;91.60;;;;;;5071687;28;20587;-59
2021/08/23 12:08:36;;;;;;;38.97;18.35;;;25.10;91.20;;;;;;5074186;28;20072;-60
2021/08/23 12:11:14;;;;;;;37.75;18.77;;;25.10;91.20;;;;;;5076947;28;20577;-59
2021/08/23 12:13:43;;;;;;;45.70;18.80;;;25.10;91.30;;;;;;5075636;28;20430;-59
2021/08/23 12:16:19;;;;;;;42.47;19.48;;;25.10;91.40;;;;;;5075030;28;20080;-59
2021/08/23 12:18:47;;;;;;;39.88;18.05;;;25.10;90.80;;;;;;5074800;28;20073;-59
2021/08/23 12:21:26;;;;;;;40.78;19.48;;;25.10;90.90;;;;;;5072409;28;20458;-58
2021/08/23 12:23:56;;;;;;;38.28;18.15;;;25.10;90.40;;;;;;5074317;28;20541;-60
2021/08/23 12:26:35;;;;;;;50.08;18.63;;;25.10;90.20;;;;;;5069090;28;20104;-59
2021/08/23 12:29:05;;;;;;;32.30;18.02;;;24.90;90.20;;;;;;5069302;28;20430;-59
2021/08/23 12:31:33;;;;;;;40.30;19.02;;;24.90;90.50;;;;;;5071499;28;20069;-60
2021/08/23 12:34:11;;;;;;;41.15;19.10;;;25.00;90.40;;;;;;5077992;28;20109;-60